sensor_id;sensor_type;location;lat;lon;timestamp;pressure;altitude;pressure_sealevel;temperature;humidity
76808;BME280;65758;45.458;11.062;2023-10-31T00:00:55;99601.38;;;17.66;82.88
76808;BME280;65758;45.458;11.062;2023-10-31T00:03:22;99601.96;;;17.65;82.92
76808;BME280;65758;45.458;11.062;2023-10-31T00:05:49;99600.21;;;17.63;82.81
76808;BME280;65758;45.458;11.062;2023-10-31T00:08:16;99606.42;;;17.58;82.82
76808;BME280;65758;45.458;11.062;2023-10-31T00:10:43;99603.54;;;17.53;82.80
76808;BME280;65758;45.458;11.062;2023-10-31T00:13:11;99602.27;;;17.47;82.75
76808;BME280;65758;45.458;11.062;2023-10-31T00:15:38;99601.84;;;17.42;82.76
76808;BME280;65758;45.458;11.062;2023-10-31T00:18:06;99598.02;;;17.35;82.74
76808;BME280;65758;45.458;11.062;2023-10-31T00:20:32;99600.23;;;17.28;83.09
76808;BME280;65758;45.458;11.062;2023-10-31T00:22:59;99591.35;;;17.26;82.99
76808;BME280;65758;45.458;11.062;2023-10-31T00:25:26;99590.11;;;17.23;83.08
76808;BME280;65758;45.458;11.062;2023-10-31T00:27:53;99585.37;;;17.22;83.08
76808;BME280;65758;45.458;11.062;2023-10-31T00:30:20;99576.16;;;17.21;83.12
76808;BME280;65758;45.458;11.062;2023-10-31T00:32:47;99573.33;;;17.21;83.07
76808;BME280;65758;45.458;11.062;2023-10-31T00:35:15;99575.30;;;17.24;83.12
76808;BME280;65758;45.458;11.062;2023-10-31T00:37:42;99571.08;;;17.25;83.07
76808;BME280;65758;45.458;11.062;2023-10-31T00:40:09;99571.44;;;17.23;82.93
76808;BME280;65758;45.458;11.062;2023-10-31T00:42:40;99571.52;;;17.20;83.02
76808;BME280;65758;45.458;11.062;2023-10-31T00:45:09;99569.26;;;17.17;82.86
76808;BME280;65758;45.458;11.062;2023-10-31T00:47:36;99568.95;;;17.13;82.64
76808;BME280;65758;45.458;11.062;2023-10-31T00:50:04;99565.36;;;17.11;82.50
76808;BME280;65758;45.458;11.062;2023-10-31T00:52:31;99558.32;;;17.08;82.55
76808;BME280;65758;45.458;11.062;2023-10-31T00:54:58;99557.64;;;17.02;82.67
76808;BME280;65758;45.458;11.062;2023-10-31T00:57:25;99564.35;;;16.99;82.61
76808;BME280;65758;45.458;11.062;2023-10-31T00:59:52;99575.96;;;17.00;82.60
76808;BME280;65758;45.458;11.062;2023-10-31T01:02:19;99583.65;;;16.99;82.40
76808;BME280;65758;45.458;11.062;2023-10-31T01:04:48;99583.31;;;16.96;82.50
76808;BME280;65758;45.458;11.062;2023-10-31T01:07:15;99580.43;;;16.93;82.48
76808;BME280;65758;45.458;11.062;2023-10-31T01:09:43;99576.16;;;16.90;82.43
76808;BME280;65758;45.458;11.062;2023-10-31T01:12:11;99575.64;;;16.87;82.49
76808;BME280;65758;45.458;11.062;2023-10-31T01:14:38;99571.63;;;16.85;82.46
76808;BME280;65758;45.458;11.062;2023-10-31T01:17:05;99571.45;;;16.82;82.50
76808;BME280;65758;45.458;11.062;2023-10-31T01:23:54;99559.52;;;16.72;82.48
76808;BME280;65758;45.458;11.062;2023-10-31T01:26:21;99558.52;;;16.69;82.55
76808;BME280;65758;45.458;11.062;2023-10-31T01:28:48;99561.09;;;16.63;82.71
76808;BME280;65758;45.458;11.062;2023-10-31T01:31:15;99566.45;;;16.59;82.92
76808;BME280;65758;45.458;11.062;2023-10-31T01:33:42;99570.83;;;16.57;82.96
76808;BME280;65758;45.458;11.062;2023-10-31T01:36:10;99574.58;;;16.58;82.61
76808;BME280;65758;45.458;11.062;2023-10-31T01:38:39;99577.56;;;16.59;82.72
76808;BME280;65758;45.458;11.062;2023-10-31T01:41:05;99580.14;;;16.59;82.54
76808;BME280;65758;45.458;11.062;2023-10-31T01:43:34;99580.70;;;16.57;82.56
76808;BME280;65758;45.458;11.062;2023-10-31T01:46:02;99583.27;;;16.54;82.79
76808;BME280;65758;45.458;11.062;2023-10-31T01:48:30;99585.79;;;16.56;82.76
76808;BME280;65758;45.458;11.062;2023-10-31T01:50:59;99580.10;;;16.58;82.65
76808;BME280;65758;45.458;11.062;2023-10-31T01:53:28;99571.21;;;16.55;82.45
76808;BME280;65758;45.458;11.062;2023-10-31T01:55:57;99564.09;;;16.45;82.41
76808;BME280;65758;45.458;11.062;2023-10-31T01:58:30;99564.34;;;16.37;82.57
76808;BME280;65758;45.458;11.062;2023-10-31T02:00:59;99563.70;;;16.36;82.69
76808;BME280;65758;45.458;11.062;2023-10-31T02:03:27;99564.13;;;16.37;82.51
76808;BME280;65758;45.458;11.062;2023-10-31T02:05:55;99552.02;;;16.35;82.43
76808;BME280;65758;45.458;11.062;2023-10-31T02:08:24;99544.20;;;16.27;82.38
76808;BME280;65758;45.458;11.062;2023-10-31T02:10:52;99536.40;;;16.25;82.50
76808;BME280;65758;45.458;11.062;2023-10-31T02:13:18;99528.86;;;16.21;82.43
76808;BME280;65758;45.458;11.062;2023-10-31T02:15:46;99519.17;;;16.18;82.44
76808;BME280;65758;45.458;11.062;2023-10-31T02:18:13;99515.20;;;16.18;82.41
76808;BME280;65758;45.458;11.062;2023-10-31T02:20:41;99514.17;;;16.17;82.40
76808;BME280;65758;45.458;11.062;2023-10-31T02:23:08;99522.64;;;16.15;82.31
76808;BME280;65758;45.458;11.062;2023-10-31T02:25:35;99527.58;;;16.13;82.18
76808;BME280;65758;45.458;11.062;2023-10-31T02:28:02;99509.77;;;16.11;82.28
76808;BME280;65758;45.458;11.062;2023-10-31T02:30:30;99483.45;;;16.10;82.57
76808;BME280;65758;45.458;11.062;2023-10-31T02:32:57;99503.33;;;16.09;82.65
76808;BME280;65758;45.458;11.062;2023-10-31T02:35:24;99512.52;;;16.07;82.49
76808;BME280;65758;45.458;11.062;2023-10-31T02:37:51;99518.58;;;16.08;82.21
76808;BME280;65758;45.458;11.062;2023-10-31T02:40:18;99512.75;;;16.07;82.11
76808;BME280;65758;45.458;11.062;2023-10-31T02:42:45;99509.54;;;16.03;82.18
76808;BME280;65758;45.458;11.062;2023-10-31T02:45:12;99510.70;;;15.98;82.15
76808;BME280;65758;45.458;11.062;2023-10-31T02:47:39;99515.23;;;15.91;82.23
76808;BME280;65758;45.458;11.062;2023-10-31T02:50:06;99521.52;;;15.85;82.36
76808;BME280;65758;45.458;11.062;2023-10-31T02:52:33;99533.08;;;15.83;82.68
76808;BME280;65758;45.458;11.062;2023-10-31T02:55:00;99532.96;;;15.83;82.64
76808;BME280;65758;45.458;11.062;2023-10-31T02:57:27;99534.30;;;15.88;82.91
76808;BME280;65758;45.458;11.062;2023-10-31T02:59:54;99524.65;;;15.93;82.75
76808;BME280;65758;45.458;11.062;2023-10-31T03:02:21;99513.46;;;15.97;82.86
76808;BME280;65758;45.458;11.062;2023-10-31T03:04:49;99513.23;;;15.98;82.52
76808;BME280;65758;45.458;11.062;2023-10-31T03:07:16;99508.83;;;16.02;82.53
76808;BME280;65758;45.458;11.062;2023-10-31T03:09:43;99496.25;;;16.06;82.39
76808;BME280;65758;45.458;11.062;2023-10-31T03:12:10;99493.61;;;16.10;82.21
76808;BME280;65758;45.458;11.062;2023-10-31T03:14:37;99483.82;;;16.12;82.06
76808;BME280;65758;45.458;11.062;2023-10-31T03:17:04;99477.58;;;16.12;81.90
76808;BME280;65758;45.458;11.062;2023-10-31T03:19:31;99466.96;;;16.09;81.87
76808;BME280;65758;45.458;11.062;2023-10-31T03:21:58;99462.23;;;16.03;81.69
76808;BME280;65758;45.458;11.062;2023-10-31T03:24:25;99470.27;;;15.99;81.87
76808;BME280;65758;45.458;11.062;2023-10-31T03:26:52;99476.27;;;15.97;82.04
76808;BME280;65758;45.458;11.062;2023-10-31T03:29:18;99477.73;;;15.93;82.14
76808;BME280;65758;45.458;11.062;2023-10-31T03:31:46;99473.27;;;15.93;82.14
76808;BME280;65758;45.458;11.062;2023-10-31T03:34:12;99461.45;;;15.95;82.08
76808;BME280;65758;45.458;11.062;2023-10-31T03:36:39;99466.11;;;15.96;81.94
76808;BME280;65758;45.458;11.062;2023-10-31T03:39:06;99473.65;;;15.99;82.16
76808;BME280;65758;45.458;11.062;2023-10-31T03:41:33;99465.98;;;16.04;82.19
76808;BME280;65758;45.458;11.062;2023-10-31T03:44:00;99454.36;;;16.10;82.03
76808;BME280;65758;45.458;11.062;2023-10-31T03:46:27;99454.55;;;16.08;81.73
76808;BME280;65758;45.458;11.062;2023-10-31T03:48:55;99450.64;;;16.06;81.70
76808;BME280;65758;45.458;11.062;2023-10-31T03:51:22;99429.91;;;16.05;81.72
76808;BME280;65758;45.458;11.062;2023-10-31T03:53:49;99430.89;;;16.02;81.79
76808;BME280;65758;45.458;11.062;2023-10-31T03:56:16;99432.58;;;16.00;82.15
76808;BME280;65758;45.458;11.062;2023-10-31T03:58:43;99438.23;;;16.02;81.77
76808;BME280;65758;45.458;11.062;2023-10-31T04:01:10;99441.69;;;16.03;81.95
76808;BME280;65758;45.458;11.062;2023-10-31T04:03:36;99444.28;;;16.04;81.77
76808;BME280;65758;45.458;11.062;2023-10-31T04:06:05;99438.78;;;16.07;81.54
76808;BME280;65758;45.458;11.062;2023-10-31T04:08:32;99435.86;;;16.11;81.61
76808;BME280;65758;45.458;11.062;2023-10-31T04:10:59;99430.77;;;16.12;81.47
76808;BME280;65758;45.458;11.062;2023-10-31T04:13:26;99426.93;;;16.14;81.71
76808;BME280;65758;45.458;11.062;2023-10-31T04:15:52;99412.07;;;16.16;81.57
76808;BME280;65758;45.458;11.062;2023-10-31T04:18:19;99401.11;;;16.13;81.47
76808;BME280;65758;45.458;11.062;2023-10-31T04:20:46;99404.23;;;16.12;81.58
76808;BME280;65758;45.458;11.062;2023-10-31T04:23:13;99416.09;;;16.12;81.46
76808;BME280;65758;45.458;11.062;2023-10-31T04:25:40;99422.25;;;16.13;81.61
76808;BME280;65758;45.458;11.062;2023-10-31T04:28:07;99436.89;;;16.17;81.56
76808;BME280;65758;45.458;11.062;2023-10-31T04:30:34;99446.96;;;16.19;81.35
76808;BME280;65758;45.458;11.062;2023-10-31T04:33:01;99433.60;;;16.19;81.28
76808;BME280;65758;45.458;11.062;2023-10-31T04:35:28;99416.82;;;16.19;81.37
76808;BME280;65758;45.458;11.062;2023-10-31T04:37:55;99406.34;;;16.17;81.11
76808;BME280;65758;45.458;11.062;2023-10-31T04:40:23;99417.19;;;16.17;81.38
76808;BME280;65758;45.458;11.062;2023-10-31T04:42:50;99424.66;;;16.19;81.33
76808;BME280;65758;45.458;11.062;2023-10-31T04:45:17;99418.88;;;16.22;81.51
76808;BME280;65758;45.458;11.062;2023-10-31T04:47:44;99412.04;;;16.26;81.60
76808;BME280;65758;45.458;11.062;2023-10-31T04:50:11;99406.98;;;16.29;81.40
76808;BME280;65758;45.458;11.062;2023-10-31T04:52:38;99411.36;;;16.32;81.43
76808;BME280;65758;45.458;11.062;2023-10-31T04:55:05;99413.74;;;16.35;81.28
76808;BME280;65758;45.458;11.062;2023-10-31T04:57:32;99406.17;;;16.36;81.24
76808;BME280;65758;45.458;11.062;2023-10-31T04:59:59;99402.36;;;16.39;81.13
76808;BME280;65758;45.458;11.062;2023-10-31T05:02:26;99393.18;;;16.43;81.29
76808;BME280;65758;45.458;11.062;2023-10-31T05:04:53;99381.79;;;16.48;80.99
76808;BME280;65758;45.458;11.062;2023-10-31T05:07:20;99373.48;;;16.50;80.97
76808;BME280;65758;45.458;11.062;2023-10-31T05:09:47;99379.82;;;16.52;80.82
76808;BME280;65758;45.458;11.062;2023-10-31T05:12:13;99383.38;;;16.53;80.80
76808;BME280;65758;45.458;11.062;2023-10-31T05:14:40;99389.38;;;16.56;80.77
76808;BME280;65758;45.458;11.062;2023-10-31T05:17:07;99384.97;;;16.59;80.78
76808;BME280;65758;45.458;11.062;2023-10-31T05:19:34;99373.66;;;16.63;80.58
76808;BME280;65758;45.458;11.062;2023-10-31T05:22:01;99364.67;;;16.64;80.53
76808;BME280;65758;45.458;11.062;2023-10-31T05:24:29;99363.23;;;16.65;80.48
76808;BME280;65758;45.458;11.062;2023-10-31T05:31:15;99354.66;;;16.64;80.19
76808;BME280;65758;45.458;11.062;2023-10-31T05:33:44;99362.73;;;16.66;80.30
76808;BME280;65758;45.458;11.062;2023-10-31T05:36:21;99366.92;;;16.66;80.41
76808;BME280;65758;45.458;11.062;2023-10-31T05:38:49;99372.73;;;16.66;80.56
76808;BME280;65758;45.458;11.062;2023-10-31T05:41:16;99377.38;;;16.68;80.43
76808;BME280;65758;45.458;11.062;2023-10-31T05:48:02;99371.65;;;16.73;80.09
76808;BME280;65758;45.458;11.062;2023-10-31T05:50:30;99373.95;;;16.75;80.04
76808;BME280;65758;45.458;11.062;2023-10-31T05:52:57;99382.23;;;16.75;80.26
76808;BME280;65758;45.458;11.062;2023-10-31T05:55:24;99392.00;;;16.76;80.35
76808;BME280;65758;45.458;11.062;2023-10-31T05:57:51;99397.66;;;16.78;80.34
76808;BME280;65758;45.458;11.062;2023-10-31T06:00:18;99394.63;;;16.81;80.39
76808;BME280;65758;45.458;11.062;2023-10-31T06:02:45;99398.84;;;16.83;79.94
76808;BME280;65758;45.458;11.062;2023-10-31T06:09:38;99404.44;;;16.90;79.94
76808;BME280;65758;45.458;11.062;2023-10-31T06:12:05;99406.77;;;16.90;79.83
76808;BME280;65758;45.458;11.062;2023-10-31T06:14:32;99414.34;;;16.90;79.89
76808;BME280;65758;45.458;11.062;2023-10-31T06:16:59;99421.27;;;16.92;79.83
76808;BME280;65758;45.458;11.062;2023-10-31T06:23:48;99457.64;;;17.01;79.84
76808;BME280;65758;45.458;11.062;2023-10-31T06:26:15;99464.25;;;17.03;79.69
76808;BME280;65758;45.458;11.062;2023-10-31T06:28:42;99477.26;;;17.02;79.69
76808;BME280;65758;45.458;11.062;2023-10-31T06:31:23;99491.63;;;17.02;79.75
76808;BME280;65758;45.458;11.062;2023-10-31T06:33:50;99502.28;;;17.02;79.89
76808;BME280;65758;45.458;11.062;2023-10-31T06:36:17;99518.98;;;17.03;79.88
76808;BME280;65758;45.458;11.062;2023-10-31T06:38:44;99529.58;;;17.00;79.81
76808;BME280;65758;45.458;11.062;2023-10-31T06:41:11;99533.86;;;16.98;79.77
76808;BME280;65758;45.458;11.062;2023-10-31T06:43:38;99537.77;;;16.97;79.54
76808;BME280;65758;45.458;11.062;2023-10-31T06:46:05;99538.45;;;16.95;79.07
76808;BME280;65758;45.458;11.062;2023-10-31T06:48:32;99534.58;;;16.91;78.35
76808;BME280;65758;45.458;11.062;2023-10-31T06:50:59;99528.63;;;16.86;77.91
76808;BME280;65758;45.458;11.062;2023-10-31T06:53:26;99522.61;;;16.81;77.60
76808;BME280;65758;45.458;11.062;2023-10-31T06:55:53;99528.65;;;16.80;77.61
76808;BME280;65758;45.458;11.062;2023-10-31T06:58:20;99531.84;;;16.78;77.62
76808;BME280;65758;45.458;11.062;2023-10-31T07:00:47;99533.80;;;16.75;77.27
76808;BME280;65758;45.458;11.062;2023-10-31T07:03:14;99535.30;;;16.70;77.11
76808;BME280;65758;45.458;11.062;2023-10-31T07:05:43;99531.13;;;16.69;77.36
76808;BME280;65758;45.458;11.062;2023-10-31T07:08:10;99528.84;;;16.65;76.81
76808;BME280;65758;45.458;11.062;2023-10-31T07:10:37;99542.83;;;16.62;77.28
76808;BME280;65758;45.458;11.062;2023-10-31T07:13:04;99553.85;;;16.63;77.15
76808;BME280;65758;45.458;11.062;2023-10-31T07:15:30;99557.39;;;16.67;77.68
76808;BME280;65758;45.458;11.062;2023-10-31T07:17:57;99562.16;;;16.74;77.92
76808;BME280;65758;45.458;11.062;2023-10-31T07:20:24;99556.09;;;16.82;77.32
76808;BME280;65758;45.458;11.062;2023-10-31T07:22:51;99548.77;;;16.83;76.71
76808;BME280;65758;45.458;11.062;2023-10-31T07:25:19;99555.27;;;16.86;76.56
76808;BME280;65758;45.458;11.062;2023-10-31T07:27:45;99557.86;;;16.90;77.12
76808;BME280;65758;45.458;11.062;2023-10-31T07:30:13;99565.39;;;16.97;76.79
76808;BME280;65758;45.458;11.062;2023-10-31T07:32:40;99558.61;;;17.03;76.95
76808;BME280;65758;45.458;11.062;2023-10-31T07:35:07;99551.81;;;17.11;76.83
76808;BME280;65758;45.458;11.062;2023-10-31T07:37:34;99539.06;;;17.16;76.14
76808;BME280;65758;45.458;11.062;2023-10-31T07:40:03;99541.74;;;17.19;76.53
76808;BME280;65758;45.458;11.062;2023-10-31T07:42:31;99539.42;;;17.21;76.57
76808;BME280;65758;45.458;11.062;2023-10-31T07:44:57;99533.51;;;17.23;76.27
76808;BME280;65758;45.458;11.062;2023-10-31T07:47:24;99522.16;;;17.22;75.84
76808;BME280;65758;45.458;11.062;2023-10-31T07:49:51;99511.04;;;17.23;75.84
76808;BME280;65758;45.458;11.062;2023-10-31T07:52:20;99508.55;;;17.27;75.81
76808;BME280;65758;45.458;11.062;2023-10-31T07:54:47;99509.27;;;17.30;75.51
76808;BME280;65758;45.458;11.062;2023-10-31T07:57:14;99505.05;;;17.31;75.08
76808;BME280;65758;45.458;11.062;2023-10-31T07:59:40;99510.83;;;17.33;75.21
76808;BME280;65758;45.458;11.062;2023-10-31T08:02:07;99512.05;;;17.32;74.76
76808;BME280;65758;45.458;11.062;2023-10-31T08:04:34;99526.69;;;17.30;74.52
76808;BME280;65758;45.458;11.062;2023-10-31T08:07:01;99560.23;;;17.28;74.28
76808;BME280;65758;45.458;11.062;2023-10-31T08:09:29;99563.69;;;17.23;74.03
76808;BME280;65758;45.458;11.062;2023-10-31T08:11:56;99558.27;;;17.16;73.89
76808;BME280;65758;45.458;11.062;2023-10-31T08:18:43;99567.03;;;17.05;73.65
76808;BME280;65758;45.458;11.062;2023-10-31T08:21:11;99570.96;;;16.98;73.72
76808;BME280;65758;45.458;11.062;2023-10-31T08:27:57;99576.05;;;16.78;73.66
76808;BME280;65758;45.458;11.062;2023-10-31T08:30:24;99577.61;;;16.68;73.76
76808;BME280;65758;45.458;11.062;2023-10-31T08:37:11;99570.73;;;16.60;73.37
76808;BME280;65758;45.458;11.062;2023-10-31T08:43:59;99565.65;;;16.69;73.17
76808;BME280;65758;45.458;11.062;2023-10-31T08:50:44;99576.02;;;16.75;73.27
76808;BME280;65758;45.458;11.062;2023-10-31T08:53:11;99582.61;;;16.78;73.59
76808;BME280;65758;45.458;11.062;2023-10-31T08:59:58;99585.02;;;16.75;72.94
76808;BME280;65758;45.458;11.062;2023-10-31T09:02:25;99584.35;;;16.67;73.02
76808;BME280;65758;45.458;11.062;2023-10-31T09:09:14;99583.77;;;16.45;72.83
76808;BME280;65758;45.458;11.062;2023-10-31T09:15:49;99581.80;;;16.37;72.62
76808;BME280;65758;45.458;11.062;2023-10-31T09:22:36;99577.08;;;16.45;72.49
76808;BME280;65758;45.458;11.062;2023-10-31T09:25:03;99578.38;;;16.46;72.71
76808;BME280;65758;45.458;11.062;2023-10-31T09:31:43;99585.95;;;16.52;71.57
76808;BME280;65758;45.458;11.062;2023-10-31T09:34:09;99588.33;;;16.50;71.22
76808;BME280;65758;45.458;11.062;2023-10-31T09:36:36;99590.32;;;16.51;71.27
76808;BME280;65758;45.458;11.062;2023-10-31T09:43:17;99591.61;;;16.48;70.59
76808;BME280;65758;45.458;11.062;2023-10-31T09:50:04;99593.65;;;16.44;70.34
76808;BME280;65758;45.458;11.062;2023-10-31T09:56:59;99602.05;;;16.29;70.09
76808;BME280;65758;45.458;11.062;2023-10-31T10:03:40;99620.92;;;16.29;69.95
76808;BME280;65758;45.458;11.062;2023-10-31T10:06:07;99627.75;;;16.26;70.09
76808;BME280;65758;45.458;11.062;2023-10-31T10:12:43;99637.04;;;16.18;69.78
76808;BME280;65758;45.458;11.062;2023-10-31T10:15:11;99643.19;;;16.16;70.45
76808;BME280;65758;45.458;11.062;2023-10-31T10:17:38;99647.73;;;16.14;70.26
76808;BME280;65758;45.458;11.062;2023-10-31T10:20:10;99660.48;;;16.09;70.14
76808;BME280;65758;45.458;11.062;2023-10-31T10:22:41;99673.27;;;16.05;70.59
76808;BME280;65758;45.458;11.062;2023-10-31T10:25:11;99684.77;;;16.02;70.49
76808;BME280;65758;45.458;11.062;2023-10-31T10:27:43;99687.48;;;15.93;70.14
76808;BME280;65758;45.458;11.062;2023-10-31T10:30:11;99694.31;;;15.88;70.22
76808;BME280;65758;45.458;11.062;2023-10-31T10:32:38;99695.85;;;15.81;69.93
76808;BME280;65758;45.458;11.062;2023-10-31T10:35:07;99702.25;;;15.74;70.24
76808;BME280;65758;45.458;11.062;2023-10-31T10:37:37;99705.65;;;15.68;70.24
76808;BME280;65758;45.458;11.062;2023-10-31T10:40:06;99691.93;;;15.66;70.45
76808;BME280;65758;45.458;11.062;2023-10-31T10:42:45;99690.56;;;15.71;70.56
76808;BME280;65758;45.458;11.062;2023-10-31T10:54:00;99684.45;;;15.87;70.43
76808;BME280;65758;45.458;11.062;2023-10-31T10:56:35;99689.10;;;15.83;70.23
76808;BME280;65758;45.458;11.062;2023-10-31T10:59:18;99686.40;;;15.83;69.76
76808;BME280;65758;45.458;11.062;2023-10-31T11:01:48;99698.67;;;15.81;67.20
76808;BME280;65758;45.458;11.062;2023-10-31T11:04:16;99713.19;;;15.81;65.72
76808;BME280;65758;45.458;11.062;2023-10-31T11:06:44;99731.69;;;15.78;64.49
76808;BME280;65758;45.458;11.062;2023-10-31T11:09:13;99747.69;;;15.76;63.62
76808;BME280;65758;45.458;11.062;2023-10-31T11:11:41;99748.04;;;15.73;62.42
76808;BME280;65758;45.458;11.062;2023-10-31T11:18:15;99797.90;;;15.63;60.08
76808;BME280;65758;45.458;11.062;2023-10-31T11:25:02;99827.79;;;15.45;61.60
76808;BME280;65758;45.458;11.062;2023-10-31T11:27:29;99842.14;;;15.38;63.82
76808;BME280;65758;45.458;11.062;2023-10-31T11:29:56;99848.52;;;15.27;64.98
76808;BME280;65758;45.458;11.062;2023-10-31T11:32:26;99842.86;;;15.16;66.52
76808;BME280;65758;45.458;11.062;2023-10-31T11:34:53;99850.64;;;15.09;67.47
76808;BME280;65758;45.458;11.062;2023-10-31T11:37:32;99865.75;;;15.05;68.18
76808;BME280;65758;45.458;11.062;2023-10-31T11:42:41;99884.50;;;14.91;69.39
76808;BME280;65758;45.458;11.062;2023-10-31T11:45:09;99888.67;;;14.80;69.68
76808;BME280;65758;45.458;11.062;2023-10-31T11:47:49;99892.20;;;14.71;69.73
76808;BME280;65758;45.458;11.062;2023-10-31T11:50:18;99898.11;;;14.68;70.29
76808;BME280;65758;45.458;11.062;2023-10-31T11:52:45;99911.00;;;14.67;70.09
76808;BME280;65758;45.458;11.062;2023-10-31T11:55:25;99917.31;;;14.66;69.90
76808;BME280;65758;45.458;11.062;2023-10-31T12:02:14;99932.86;;;14.63;70.16
76808;BME280;65758;45.458;11.062;2023-10-31T12:04:41;99930.14;;;14.64;70.22
76808;BME280;65758;45.458;11.062;2023-10-31T12:07:08;99935.22;;;14.69;70.56
76808;BME280;65758;45.458;11.062;2023-10-31T12:14:01;99912.92;;;14.95;70.78
76808;BME280;65758;45.458;11.062;2023-10-31T12:16:30;99897.66;;;15.02;70.76
76808;BME280;65758;45.458;11.062;2023-10-31T12:23:18;99896.17;;;15.41;69.48
76808;BME280;65758;45.458;11.062;2023-10-31T12:30:21;99913.47;;;15.78;70.35
76808;BME280;65758;45.458;11.062;2023-10-31T12:32:55;99917.50;;;15.94;69.67
76808;BME280;65758;45.458;11.062;2023-10-31T12:35:25;99922.56;;;16.08;69.69
76808;BME280;65758;45.458;11.062;2023-10-31T12:37:53;99930.10;;;16.25;68.88
76808;BME280;65758;45.458;11.062;2023-10-31T12:40:21;99930.58;;;16.40;68.39
76808;BME280;65758;45.458;11.062;2023-10-31T12:42:49;99937.25;;;16.53;68.55
76808;BME280;65758;45.458;11.062;2023-10-31T12:45:18;99934.92;;;16.65;68.15
76808;BME280;65758;45.458;11.062;2023-10-31T12:48:00;99935.68;;;16.76;67.42
76808;BME280;65758;45.458;11.062;2023-10-31T12:50:28;99942.21;;;16.89;67.26
76808;BME280;65758;45.458;11.062;2023-10-31T12:52:55;99947.00;;;17.00;66.74
76808;BME280;65758;45.458;11.062;2023-10-31T12:55:25;99944.70;;;17.11;66.40
76808;BME280;65758;45.458;11.062;2023-10-31T12:57:53;99950.70;;;17.21;66.44
76808;BME280;65758;45.458;11.062;2023-10-31T13:00:21;99946.30;;;17.29;66.62
76808;BME280;65758;45.458;11.062;2023-10-31T13:07:07;99964.70;;;17.45;66.62
76808;BME280;65758;45.458;11.062;2023-10-31T13:09:36;99968.21;;;17.47;67.28
76808;BME280;65758;45.458;11.062;2023-10-31T13:16:26;99993.42;;;17.55;66.40
76808;BME280;65758;45.458;11.062;2023-10-31T13:18:56;99993.54;;;17.56;66.29
76808;BME280;65758;45.458;11.062;2023-10-31T13:21:22;99998.27;;;17.61;66.46
76808;BME280;65758;45.458;11.062;2023-10-31T13:23:49;100006.81;;;17.64;66.75
76808;BME280;65758;45.458;11.062;2023-10-31T13:26:16;100011.06;;;17.66;66.40
76808;BME280;65758;45.458;11.062;2023-10-31T13:28:43;100011.48;;;17.68;65.72
76808;BME280;65758;45.458;11.062;2023-10-31T13:35:24;100008.70;;;17.63;63.87
76808;BME280;65758;45.458;11.062;2023-10-31T13:37:51;100015.17;;;17.64;64.21
76808;BME280;65758;45.458;11.062;2023-10-31T13:40:18;100013.20;;;17.67;64.86
76808;BME280;65758;45.458;11.062;2023-10-31T13:46:59;100030.20;;;17.72;64.51
76808;BME280;65758;45.458;11.062;2023-10-31T13:49:26;100036.79;;;17.73;63.89
76808;BME280;65758;45.458;11.062;2023-10-31T13:51:53;100045.41;;;17.73;63.66
76808;BME280;65758;45.458;11.062;2023-10-31T13:54:20;100054.85;;;17.76;63.45
76808;BME280;65758;45.458;11.062;2023-10-31T13:56:48;100058.52;;;17.75;62.78
76808;BME280;65758;45.458;11.062;2023-10-31T14:03:28;100063.38;;;17.64;62.43
76808;BME280;65758;45.458;11.062;2023-10-31T14:10:16;100060.25;;;17.49;62.04
76808;BME280;65758;45.458;11.062;2023-10-31T14:12:46;100060.36;;;17.43;62.25
76808;BME280;65758;45.458;11.062;2023-10-31T14:19:40;100070.65;;;17.30;61.83
76808;BME280;65758;45.458;11.062;2023-10-31T14:22:09;100075.98;;;17.24;61.41
76808;BME280;65758;45.458;11.062;2023-10-31T14:24:36;100078.61;;;17.20;61.58
76808;BME280;65758;45.458;11.062;2023-10-31T14:27:02;100082.77;;;17.18;61.20
76808;BME280;65758;45.458;11.062;2023-10-31T14:29:29;100081.91;;;17.16;61.40
76808;BME280;65758;45.458;11.062;2023-10-31T14:31:56;100087.66;;;17.15;61.22
76808;BME280;65758;45.458;11.062;2023-10-31T14:38:44;100099.60;;;17.13;61.25
76808;BME280;65758;45.458;11.062;2023-10-31T14:41:11;100104.59;;;17.11;61.10
76808;BME280;65758;45.458;11.062;2023-10-31T14:43:38;100109.38;;;17.07;60.98
76808;BME280;65758;45.458;11.062;2023-10-31T14:46:05;100109.08;;;17.03;61.11
76808;BME280;65758;45.458;11.062;2023-10-31T14:48:34;100112.41;;;17.00;60.97
76808;BME280;65758;45.458;11.062;2023-10-31T14:51:01;100115.84;;;17.00;61.27
76808;BME280;65758;45.458;11.062;2023-10-31T14:53:29;100118.71;;;16.99;61.17
76808;BME280;65758;45.458;11.062;2023-10-31T14:55:56;100118.11;;;16.97;60.72
76808;BME280;65758;45.458;11.062;2023-10-31T14:58:23;100116.96;;;16.96;61.58
76808;BME280;65758;45.458;11.062;2023-10-31T15:00:50;100117.90;;;16.95;61.31
76808;BME280;65758;45.458;11.062;2023-10-31T15:03:17;100117.76;;;16.93;60.99
76808;BME280;65758;45.458;11.062;2023-10-31T15:05:44;100123.73;;;16.93;61.32
76808;BME280;65758;45.458;11.062;2023-10-31T15:12:31;100132.04;;;16.89;60.83
76808;BME280;65758;45.458;11.062;2023-10-31T15:14:58;100131.44;;;16.86;60.98
76808;BME280;65758;45.458;11.062;2023-10-31T15:17:25;100141.06;;;16.83;60.76
76808;BME280;65758;45.458;11.062;2023-10-31T15:19:52;100145.01;;;16.79;60.74
76808;BME280;65758;45.458;11.062;2023-10-31T15:26:46;100154.48;;;16.68;60.77
76808;BME280;65758;45.458;11.062;2023-10-31T15:29:13;100156.38;;;16.66;62.25
76808;BME280;65758;45.458;11.062;2023-10-31T15:31:43;100154.98;;;16.65;62.02
76808;BME280;65758;45.458;11.062;2023-10-31T15:34:11;100157.33;;;16.63;62.18
76808;BME280;65758;45.458;11.062;2023-10-31T15:36:38;100159.27;;;16.59;61.91